Terminal Aerodrome Forecast
Issued by NWS

Home | Current Version | Previous Version | Text Only | Print | Product List | Glossary Off
Versions: 1 2 3 4 5 6 7 8 9 10 11 12 13 14 15 16

377
FTUS43 KICT 222155 AAA
TAFSLN
TAF AMD
KSLN 222155Z 2222/2318 25008KT P6SM VCTS SCT090CB
      TEMPO 2300/2302 5SM -TSRA BKN070CB
     FM230200 06008KT P6SM VCTS BKN070CB
     FM230600 06007KT P6SM BKN200=

USA.gov is the U.S. government's official web portal to all federal, state and local government web resources and services.